Time;durP1;ratioP1;P1;durP2;ratioP2;P2;SDS_P1;SDS_P2;PMS_P1;PMS_P2;Temp;Humidity;BMP_temperature;BMP_pressure;BME280_temperature;BME280_humidity;BME280_pressure;Samples;Min_cycle;Max_cycle;Signal;HPM_P1;HPM_P2
2023/07/26 00:00:54;;;;;;;8.02;3.90;;;;;;;20.95;69.09;98021.31;4481173;32;33564;-86
2023/07/26 00:03:22;;;;;;;9.18;4.22;;;;;;;21.00;70.00;98015.81;4482645;32;35023;-87
2023/07/26 00:05:49;;;;;;;9.88;3.58;;;;;;;21.30;69.42;98027.53;4481418;32;34093;-86
2023/07/26 00:08:17;;;;;;;7.55;3.42;;;;;;;20.79;70.54;98022.94;4482239;32;33726;-86
2023/07/26 00:10:48;;;;;;;6.93;3.70;;;;;;;20.98;69.95;98025.56;4481307;32;34441;-86
2023/07/26 00:13:16;;;;;;;6.55;3.95;;;;;;;21.14;69.23;98019.50;4467964;32;33665;-87
2023/07/26 00:15:43;;;;;;;6.85;3.45;;;;;;;21.40;69.01;98006.84;4481201;32;34223;-87
2023/07/26 00:18:11;;;;;;;7.90;3.65;;;;;;;21.55;68.32;98002.59;4481109;32;33457;-87
2023/07/26 00:20:38;;;;;;;10.02;4.28;;;;;;;21.08;69.42;98011.03;4481755;32;33431;-87
2023/07/26 00:23:06;;;;;;;7.45;4.20;;;;;;;20.82;70.86;98007.00;4484254;32;34554;-86
2023/07/26 00:25:34;;;;;;;7.30;3.72;;;;;;;20.77;70.71;97991.41;4484507;32;34196;-87
2023/07/26 00:28:01;;;;;;;6.87;3.80;;;;;;;20.95;70.05;97973.91;4484127;32;33620;-86
2023/07/26 00:30:28;;;;;;;6.70;3.20;;;;;;;21.02;69.94;97970.00;4484130;32;34801;-86
2023/07/26 00:32:56;;;;;;;6.55;3.70;;;;;;;21.17;69.33;97952.59;4484104;32;35015;-87
2023/07/26 00:35:29;;;;;;;6.70;3.17;;;;;;;20.96;69.79;97945.75;4483931;32;33702;-87
2023/07/26 00:37:56;;;;;;;6.10;3.50;;;;;;;21.01;69.33;97928.78;4484220;32;32749;-86
2023/07/26 00:40:24;;;;;;;7.28;3.30;;;;;;;20.70;71.10;97918.88;4484152;32;34409;-86
2023/07/26 00:42:51;;;;;;;6.22;3.83;;;;;;;20.30;72.14;97912.84;4482917;32;34095;-88
2023/07/26 00:45:19;;;;;;;5.50;3.33;;;;;;;20.25;72.48;97916.62;4484164;32;34701;-86
2023/07/26 00:47:47;;;;;;;11.20;3.90;;;;;;;20.11;72.95;97912.81;4482734;32;31995;-86
2023/07/26 00:50:15;;;;;;;7.12;4.18;;;;;;;20.30;72.51;97891.78;4482762;32;33273;-85
2023/07/26 00:52:43;;;;;;;8.95;4.43;;;;;;;20.30;72.47;97881.25;4483934;31;34356;-87
2023/07/26 00:55:12;;;;;;;7.60;4.25;;;;;;;20.40;72.17;97890.44;4482611;32;34286;-86
2023/07/26 00:57:39;;;;;;;7.22;4.05;;;;;;;20.30;73.09;97891.78;4482756;32;33350;-87
2023/07/26 01:00:09;;;;;;;6.62;4.07;;;;;;;20.44;72.40;97883.25;4484008;32;33739;-86
2023/07/26 01:02:37;;;;;;;6.78;4.25;;;;;;;20.53;72.11;97892.50;4482707;32;34001;-86
2023/07/26 01:05:05;;;;;;;8.18;3.72;;;;;;;20.65;71.77;97891.94;4484044;32;33584;-87
2023/07/26 01:07:53;;;;;;;6.35;3.90;;;;;;;20.37;72.96;97879.19;4483861;32;34280;-86
2023/07/26 01:10:30;;;;;;;6.47;3.80;;;;;;;20.52;72.30;97873.22;4482682;32;34124;-86
2023/07/26 01:13:14;;;;;;;7.45;3.83;;;;;;;20.72;71.73;97869.66;4482882;32;33430;-86
2023/07/26 01:15:46;;;;;;;7.15;3.55;;;;;;;20.72;71.58;97866.13;4482543;32;33921;-86
2023/07/26 01:18:15;;;;;;;7.75;3.60;;;;;;;20.82;71.22;97857.72;4483859;32;33176;-86
2023/07/26 01:20:43;;;;;;;6.25;3.47;;;;;;;20.94;70.47;97835.16;4482088;32;34612;-86
2023/07/26 01:23:11;;;;;;;8.45;3.83;;;;;;;20.90;70.73;97838.88;4482553;32;34577;-86
2023/07/26 01:25:39;;;;;;;5.68;3.60;;;;;;;20.67;71.03;97857.63;4483904;32;34348;-87
2023/07/26 01:28:06;;;;;;;5.87;3.75;;;;;;;20.70;71.17;97858.31;4483773;32;33976;-87
2023/07/26 01:30:34;;;;;;;6.43;3.97;;;;;;;20.50;72.23;97850.56;4484353;32;33617;-87
2023/07/26 01:33:05;;;;;;;7.22;3.30;;;;;;;20.59;71.16;97847.47;4468785;32;33409;-86
2023/07/26 01:35:35;;;;;;;8.77;3.30;;;;;;;20.33;72.31;97830.25;4482058;32;33790;-87
2023/07/26 01:38:03;;;;;;;7.12;3.60;;;;;;;20.19;72.61;97815.09;4483697;32;33808;-86
2023/07/26 01:40:32;;;;;;;6.65;3.25;;;;;;;20.46;72.08;97822.63;4483654;32;34114;-88
2023/07/26 01:42:59;;;;;;;7.22;3.65;;;;;;;20.40;71.53;97829.03;4482407;32;34278;-87
2023/07/26 01:45:27;;;;;;;7.10;3.58;;;;;;;20.06;72.63;97829.78;4469457;32;34576;-87
2023/07/26 01:47:55;;;;;;;6.85;3.40;;;;;;;20.13;72.79;97842.59;4483670;32;33628;-86
2023/07/26 01:50:23;;;;;;;8.07;3.42;;;;;;;19.92;72.95;97849.69;4483477;32;34005;-87
2023/07/26 01:52:51;;;;;;;8.18;3.90;;;;;;;19.70;74.29;97864.75;4482304;32;34132;-87
2023/07/26 01:55:18;;;;;;;8.05;3.62;;;;;;;20.15;72.45;97863.53;4483438;32;33650;-87
2023/07/26 01:57:46;;;;;;;7.43;4.25;;;;;;;20.22;72.27;97866.75;4483908;32;32257;-87
2023/07/26 02:00:13;;;;;;;5.65;3.40;;;;;;;19.95;73.16;97872.38;4483633;32;34752;-86
2023/07/26 02:02:41;;;;;;;5.93;3.60;;;;;;;20.20;72.04;97880.00;4483200;32;33102;-87
2023/07/26 02:05:09;;;;;;;7.03;3.80;;;;;;;19.99;73.14;97886.25;4483513;32;33494;-87
2023/07/26 02:07:37;;;;;;;8.40;3.85;;;;;;;20.17;72.22;97901.19;4483700;31;33057;-87
2023/07/26 02:10:05;;;;;;;8.50;4.05;;;;;;;20.29;71.46;97895.34;4483392;32;33623;-87
2023/07/26 02:12:33;;;;;;;6.68;3.85;;;;;;;20.02;72.54;97896.63;4482397;32;33701;-86
2023/07/26 02:15:00;;;;;;;7.32;4.25;;;;;;;19.95;72.66;97895.19;4483545;32;33976;-87
2023/07/26 02:17:28;;;;;;;6.57;4.07;;;;;;;20.02;72.83;97897.47;4483142;32;34236;-87
2023/07/26 02:19:56;;;;;;;7.90;3.75;;;;;;;20.42;71.34;97909.66;4483491;32;34658;-87
2023/07/26 02:22:23;;;;;;;8.70;4.43;;;;;;;20.06;72.08;97908.72;4483497;32;32942;-86
2023/07/26 02:24:51;;;;;;;7.68;4.25;;;;;;;19.98;72.88;97921.38;4483175;32;33784;-87
2023/07/26 02:27:19;;;;;;;6.90;4.85;;;;;;;20.00;73.51;97919.50;4482171;32;33385;-87
2023/07/26 02:29:46;;;;;;;7.90;4.72;;;;;;;20.35;72.31;97916.12;4481947;32;33814;-87
2023/07/26 02:32:14;;;;;;;6.62;4.37;;;;;;;19.89;74.03;97920.87;4483314;32;34869;-87
2023/07/26 02:34:41;;;;;;;6.53;4.12;;;;;;;19.83;74.47;97922.91;4483471;32;33639;-87
2023/07/26 02:37:09;;;;;;;8.10;4.75;;;;;;;20.07;73.03;97916.53;4483408;32;34329;-87
2023/07/26 02:39:37;;;;;;;7.85;3.95;;;;;;;20.08;73.38;97933.19;4483245;32;33746;-87
2023/07/26 02:42:04;;;;;;;9.13;5.22;;;;;;;20.06;72.49;97943.75;4483329;32;35131;-88
2023/07/26 02:44:32;;;;;;;7.45;4.68;;;;;;;19.72;74.11;97928.63;4483070;32;34477;-87
2023/07/26 02:47:00;;;;;;;6.97;4.68;;;;;;;20.02;73.51;97926.41;4482991;32;34898;-87
2023/07/26 02:49:27;;;;;;;8.95;4.43;;;;;;;19.99;73.48;97918.66;4483598;32;33649;-87
2023/07/26 02:51:55;;;;;;;7.15;4.53;;;;;;;19.97;73.24;97924.94;4483176;32;34933;-87
2023/07/26 02:54:22;;;;;;;8.38;4.15;;;;;;;20.14;73.11;97923.22;4481952;32;33918;-87
2023/07/26 02:56:50;;;;;;;7.75;4.40;;;;;;;20.38;71.67;97915.09;4483207;32;33585;-87
2023/07/26 02:59:18;;;;;;;7.25;4.03;;;;;;;20.40;71.84;97908.00;4483107;32;34078;-87
2023/07/26 03:01:46;;;;;;;6.57;3.90;;;;;;;20.19;71.78;97912.47;4481413;32;32851;-86
2023/07/26 03:04:13;;;;;;;6.65;3.97;;;;;;;20.47;71.01;97911.22;4481924;32;33536;-87
2023/07/26 03:06:41;;;;;;;7.12;4.10;;;;;;;20.45;71.01;97910.41;4483000;32;33474;-87
2023/07/26 03:09:08;;;;;;;7.75;4.25;;;;;;;20.62;70.44;97908.72;4482972;32;33975;-87
2023/07/26 03:11:36;;;;;;;6.05;3.35;;;;;;;20.37;71.23;97911.63;4481729;32;34181;-87
2023/07/26 03:14:04;;;;;;;8.75;3.87;;;;;;;20.46;69.63;97899.81;4468745;32;33093;-86
2023/07/26 03:16:31;;;;;;;7.03;3.70;;;;;;;20.40;70.38;97906.22;4481377;32;33508;-87
2023/07/26 03:18:59;;;;;;;5.87;3.62;;;;;;;20.32;70.09;97903.09;4483029;32;33999;-86
2023/07/26 03:21:27;;;;;;;9.13;4.05;;;;;;;20.23;70.57;97911.44;4483063;32;33794;-87
2023/07/26 03:23:54;;;;;;;6.15;3.62;;;;;;;19.96;71.11;97921.41;4482722;32;33913;-88
2023/07/26 03:26:22;;;;;;;6.62;4.10;;;;;;;20.03;70.97;97922.00;4482884;32;33567;-86
2023/07/26 03:28:50;;;;;;;10.10;3.95;;;;;;;19.99;71.61;97925.69;4482951;32;33784;-87
2023/07/26 03:31:17;;;;;;;7.53;4.32;;;;;;;19.74;72.50;97933.84;4482565;32;33789;-88
2023/07/26 03:33:44;;;;;;;6.78;4.22;;;;;;;19.72;72.60;97939.16;4481805;32;33929;-87
2023/07/26 03:36:12;;;;;;;7.30;4.55;;;;;;;19.91;71.51;97947.09;4469166;32;32694;-87
2023/07/26 03:38:40;;;;;;;7.70;4.25;;;;;;;19.57;72.90;97947.66;4483132;32;33183;-87
2023/07/26 03:41:07;;;;;;;8.85;4.22;;;;;;;19.22;75.17;97944.75;4483024;32;34146;-87
2023/07/26 03:43:37;;;;;;;7.85;4.75;;;;;;;19.77;72.85;97957.34;4482834;32;34604;-87
2023/07/26 03:46:04;;;;;;;8.38;4.15;;;;;;;18.93;75.94;97965.19;4481264;32;31681;-87
2023/07/26 03:48:31;;;;;;;7.45;3.55;;;;;;;18.82;76.30;97982.28;4482728;32;33787;-87
2023/07/26 03:50:59;;;;;;;6.05;3.55;;;;;;;19.14;74.44;97986.28;4482471;32;34087;-87
2023/07/26 03:53:27;;;;;;;6.43;3.53;;;;;;;18.99;75.50;97994.78;4482539;32;33902;-86
2023/07/26 03:55:55;;;;;;;8.40;2.95;;;;;;;18.92;74.38;97987.13;4481640;32;33712;-87
2023/07/26 03:58:23;;;;;;;6.10;2.78;;;;;;;18.91;74.73;97985.41;4482483;32;34693;-87
2023/07/26 04:00:50;;;;;;;4.97;2.78;;;;;;;18.77;74.63;97976.38;4482375;32;34022;-87
2023/07/26 04:03:19;;;;;;;5.85;2.60;;;;;;;18.83;73.39;97977.00;4481674;32;33474;-82
2023/07/26 04:05:47;;;;;;;5.07;2.22;;;;;;;19.06;72.17;97977.84;4482690;32;34402;-87
2023/07/26 04:08:14;;;;;;;4.12;2.20;;;;;;;18.76;72.61;97980.78;4481056;32;33223;-84
2023/07/26 04:10:42;;;;;;;4.82;2.20;;;;;;;18.52;73.26;97976.44;4482469;32;35245;-86
2023/07/26 04:13:10;;;;;;;4.45;2.58;;;;;;;18.38;73.15;97980.44;4482190;32;33987;-88
2023/07/26 04:15:37;;;;;;;5.60;2.53;;;;;;;18.52;72.92;97979.06;4481079;32;33048;-86
2023/07/26 04:18:07;;;;;;;5.12;2.33;;;;;;;18.53;73.22;97989.50;4482364;32;33714;-86
2023/07/26 04:20:35;;;;;;;4.53;2.20;;;;;;;18.50;72.67;97999.25;4480932;32;33455;-86
2023/07/26 04:23:02;;;;;;;6.15;1.92;;;;;;;18.59;71.98;97993.66;4482267;32;34608;-87
2023/07/26 04:25:30;;;;;;;4.57;2.05;;;;;;;18.50;71.74;97992.25;4481045;32;33546;-87
2023/07/26 04:27:57;;;;;;;5.90;1.90;;;;;;;18.81;70.83;97993.72;4481987;32;34193;-86
2023/07/26 04:30:25;;;;;;;4.22;1.60;;;;;;;18.64;69.90;97991.72;4482292;32;34138;-86
2023/07/26 04:32:52;;;;;;;4.68;1.80;;;;;;;18.76;69.71;97993.91;4482311;32;34012;-86
2023/07/26 04:35:20;;;;;;;3.53;1.62;;;;;;;18.48;70.40;97992.28;4480628;32;32081;-87
2023/07/26 04:37:47;;;;;;;3.87;1.70;;;;;;;18.79;69.75;97985.91;4482095;32;33087;-86
2023/07/26 04:40:15;;;;;;;5.22;1.60;;;;;;;18.74;69.62;97979.97;4482437;32;33528;-82
2023/07/26 04:42:42;;;;;;;5.30;1.45;;;;;;;19.13;68.72;97981.91;4482292;32;33778;-87
2023/07/26 04:45:11;;;;;;;4.25;1.77;;;;;;;19.26;67.26;97984.91;4482009;32;33335;-87
2023/07/26 04:47:39;;;;;;;3.65;1.67;;;;;;;18.86;68.66;97982.09;4480705;32;34070;-86
2023/07/26 04:50:07;;;;;;;3.55;1.65;;;;;;;19.01;67.73;97985.03;4481863;32;34879;-87
2023/07/26 04:52:37;;;;;;;7.12;1.67;;;;;;;19.43;66.77;97988.56;4481758;32;34020;-86
2023/07/26 04:55:05;;;;;;;4.80;1.67;;;;;;;19.48;67.33;97991.00;4480568;32;32845;-86
2023/07/26 04:57:33;;;;;;;6.28;2.83;;;;;;;19.38;67.86;97995.75;4480321;32;33703;-86
2023/07/26 05:00:00;;;;;;;6.05;1.70;;;;;;;19.61;66.64;97999.19;4481656;32;34215;-87
2023/07/26 05:02:28;;;;;;;4.18;1.50;;;;;;;19.42;67.18;97986.81;4480449;32;33965;-86
2023/07/26 05:04:56;;;;;;;3.03;1.50;;;;;;;19.87;64.96;97975.28;4481639;32;33309;-87
2023/07/26 05:07:23;;;;;;;4.50;1.70;;;;;;;19.77;65.10;97981.87;4483672;31;34063;-85
2023/07/26 05:09:51;;;;;;;3.97;1.48;;;;;;;19.48;65.71;97979.63;4483786;32;34246;-87
2023/07/26 05:12:18;;;;;;;5.72;1.45;;;;;;;19.77;64.38;97979.25;4483570;32;33254;-87
2023/07/26 05:14:46;;;;;;;3.83;1.27;;;;;;;19.40;65.52;97979.94;4483842;32;33294;-86
2023/07/26 05:17:13;;;;;;;4.37;1.50;;;;;;;19.83;65.18;97978.12;4483810;32;33956;-86
2023/07/26 05:19:41;;;;;;;3.58;1.50;;;;;;;19.73;64.90;97988.19;4483716;32;34259;-86
2023/07/26 05:22:08;;;;;;;5.03;1.67;;;;;;;19.66;65.08;97994.63;4483834;32;33682;-86
2023/07/26 05:24:39;;;;;;;3.92;1.20;;;;;;;19.83;65.31;98002.66;4483937;32;32889;-87
2023/07/26 05:27:06;;;;;;;3.17;1.42;;;;;;;19.70;65.48;98006.75;4483417;32;34118;-88
2023/07/26 05:29:33;;;;;;;3.60;1.60;;;;;;;19.33;66.11;98002.13;4483725;32;34880;-86
2023/07/26 05:32:01;;;;;;;3.20;1.45;;;;;;;18.95;66.77;98002.75;4483794;32;34617;-87
2023/07/26 05:34:29;;;;;;;3.20;1.58;;;;;;;19.01;66.70;98001.66;4483644;32;32921;-87
2023/07/26 05:36:56;;;;;;;4.43;1.42;;;;;;;19.26;66.78;98001.53;4483653;32;33896;-87
2023/07/26 05:39:24;;;;;;;4.70;1.65;;;;;;;19.51;64.73;98011.91;4469648;32;33615;-87
2023/07/26 05:41:51;;;;;;;6.78;2.12;;;;;;;18.77;67.32;98007.88;4482274;32;33689;-87
2023/07/26 05:44:19;;;;;;;5.72;1.90;;;;;;;19.24;65.07;97998.09;4482958;32;33204;-87
2023/07/26 05:46:47;;;;;;;5.55;1.80;;;;;;;18.95;66.90;98008.03;4483736;32;33975;-84
2023/07/26 05:49:15;;;;;;;3.28;1.52;;;;;;;18.85;67.64;97998.78;4483412;32;34227;-82
2023/07/26 05:51:42;;;;;;;6.97;1.80;;;;;;;18.82;67.22;98006.78;4483250;32;34174;-88
2023/07/26 05:54:10;;;;;;;3.62;1.67;;;;;;;18.91;67.57;98024.81;4483480;32;33507;-87
2023/07/26 05:56:37;;;;;;;4.53;1.70;;;;;;;18.88;67.92;98021.44;4483217;32;33642;-87
2023/07/26 05:59:04;;;;;;;3.28;1.70;;;;;;;18.79;67.25;98027.91;4483489;32;33753;-86
2023/07/26 06:01:32;;;;;;;3.15;1.48;;;;;;;18.82;66.31;98021.69;4482312;32;34054;-81
2023/07/26 06:04:01;;;;;;;5.03;1.62;;;;;;;18.52;67.16;98019.28;4483322;32;33507;-87
2023/07/26 06:06:28;;;;;;;3.47;1.35;;;;;;;18.77;67.22;98018.38;4482131;31;34112;-87
2023/07/26 06:08:57;;;;;;;3.03;1.40;;;;;;;18.78;67.25;98039.31;4483576;32;34145;-87
2023/07/26 06:11:24;;;;;;;3.53;1.60;;;;;;;18.61;67.17;98044.34;4482056;32;33754;-87
2023/07/26 06:13:54;;;;;;;3.20;1.75;;;;;;;18.47;67.49;98029.94;4483443;32;33533;-87
2023/07/26 06:16:22;;;;;;;3.30;1.48;;;;;;;18.87;66.93;98036.34;4483290;32;33892;-84
2023/07/26 06:18:49;;;;;;;4.37;1.50;;;;;;;19.06;64.94;98033.00;4482891;32;34027;-87
2023/07/26 06:21:18;;;;;;;3.03;1.30;;;;;;;18.94;65.27;98045.72;4483750;32;33864;-87
2023/07/26 06:23:46;;;;;;;3.62;1.42;;;;;;;18.71;65.85;98037.84;4482009;32;33363;-86
2023/07/26 06:26:14;;;;;;;4.35;1.67;;;;;;;19.03;66.08;98041.00;4483469;32;34645;-87
2023/07/26 06:28:42;;;;;;;4.20;1.30;;;;;;;19.17;65.68;98036.06;4483328;32;34072;-88
2023/07/26 06:31:10;;;;;;;3.58;1.60;;;;;;;19.09;65.73;98035.50;4483503;32;34653;-87
2023/07/26 06:33:38;;;;;;;2.55;1.20;;;;;;;19.24;65.80;98045.38;4482085;32;34410;-86
2023/07/26 06:36:06;;;;;;;3.70;1.50;;;;;;;18.99;67.05;98055.19;4483560;32;33816;-87
2023/07/26 06:38:34;;;;;;;3.62;1.40;;;;;;;18.94;66.98;98057.97;4483275;32;33702;-86
2023/07/26 06:41:02;;;;;;;3.58;1.40;;;;;;;19.26;68.08;98058.47;4482030;32;34863;-83
2023/07/26 06:43:29;;;;;;;4.07;1.60;;;;;;;19.02;68.23;98065.56;4483261;32;34598;-86
2023/07/26 06:45:57;;;;;;;4.18;1.80;;;;;;;18.62;69.81;98069.66;4483334;32;34038;-87
2023/07/26 06:48:24;;;;;;;3.25;1.62;;;;;;;18.40;70.94;98070.44;4483084;32;35014;-86
2023/07/26 06:50:52;;;;;;;3.05;1.23;;;;;;;18.76;69.92;98082.31;4483084;32;33940;-87
2023/07/26 06:53:19;;;;;;;4.72;1.62;;;;;;;18.96;69.68;98072.75;4481607;32;32059;-87
2023/07/26 06:55:47;;;;;;;3.50;1.67;;;;;;;18.78;70.99;98083.94;4483348;32;34115;-87
2023/07/26 06:58:14;;;;;;;4.00;1.77;;;;;;;18.77;70.08;98092.75;4483172;32;33723;-86
2023/07/26 07:00:42;;;;;;;4.55;1.50;;;;;;;19.00;69.12;98085.78;4482922;32;34722;-87
2023/07/26 07:03:10;;;;;;;4.95;1.52;;;;;;;18.99;69.54;98099.84;4483140;32;33033;-87
2023/07/26 07:05:38;;;;;;;3.97;1.87;;;;;;;18.99;70.40;98102.47;4482987;32;33637;-87
2023/07/26 07:08:05;;;;;;;4.45;1.95;;;;;;;18.65;71.14;98109.78;4482621;32;34554;-87
2023/07/26 07:10:33;;;;;;;3.92;1.73;;;;;;;18.81;71.02;98104.84;4483345;32;33991;-87
2023/07/26 07:13:00;;;;;;;3.25;1.52;;;;;;;18.66;71.20;98105.38;4483169;32;33087;-87
2023/07/26 07:15:28;;;;;;;5.12;1.73;;;;;;;19.08;70.16;98107.34;4482929;32;34722;-86
2023/07/26 07:17:56;;;;;;;4.37;1.58;;;;;;;18.82;71.25;98103.94;4483028;32;34869;-86
2023/07/26 07:20:42;;;;;;;4.18;1.75;;;;;;;18.67;71.17;98107.09;4481892;32;34173;-87
2023/07/26 07:23:10;;;;;;;3.85;1.67;;;;;;;18.94;71.48;98114.00;4481734;32;34294;-86
2023/07/26 07:25:38;;;;;;;5.22;1.80;;;;;;;19.24;69.54;98113.72;4468734;32;33723;-87
2023/07/26 07:28:06;;;;;;;2.62;1.35;;;;;;;18.99;70.38;98118.22;4482937;32;34179;-85
2023/07/26 07:30:33;;;;;;;5.22;1.75;;;;;;;18.79;70.31;98127.69;4481724;32;33782;-87
2023/07/26 07:33:01;;;;;;;4.78;1.67;;;;;;;19.15;69.23;98124.59;4482987;32;33634;-87
2023/07/26 07:35:28;;;;;;;6.28;1.67;;;;;;;19.05;69.71;98115.34;4482755;32;33995;-87
2023/07/26 07:37:56;;;;;;;4.75;1.62;;;;;;;18.90;70.25;98122.91;4482590;32;34646;-87
2023/07/26 07:40:24;;;;;;;4.30;1.40;;;;;;;19.00;70.71;98125.19;4482769;32;33955;-87
2023/07/26 07:42:51;;;;;;;5.00;1.95;;;;;;;18.95;71.11;98141.97;4482506;32;33142;-87
2023/07/26 07:45:19;;;;;;;3.70;1.70;;;;;;;18.87;70.56;98136.16;4481872;32;34752;-87
2023/07/26 07:47:46;;;;;;;4.12;1.73;;;;;;;19.10;70.07;98147.56;4482781;32;34747;-86
2023/07/26 07:50:14;;;;;;;5.68;1.85;;;;;;;18.48;71.76;98155.00;4482405;32;33476;-87
2023/07/26 07:52:42;;;;;;;4.72;2.08;;;;;;;18.87;70.47;98146.66;4482422;32;34222;-86
2023/07/26 07:55:09;;;;;;;5.40;2.00;;;;;;;18.71;71.26;98162.13;4482436;32;34610;-86
2023/07/26 07:57:37;;;;;;;6.15;2.30;;;;;;;18.81;71.71;98156.53;4468382;32;34231;-86
2023/07/26 08:00:06;;;;;;;3.92;1.70;;;;;;;18.95;70.51;98159.50;4482569;32;33904;-87
2023/07/26 08:02:38;;;;;;;5.00;2.30;;;;;;;18.63;72.89;98155.38;4482503;32;33433;-86
2023/07/26 08:05:05;;;;;;;4.20;2.33;;;;;;;18.91;71.18;98155.28;4482308;32;33672;-87
2023/07/26 08:07:33;;;;;;;5.00;2.05;;;;;;;19.17;70.75;98156.94;4482381;32;34030;-87
2023/07/26 08:10:01;;;;;;;4.82;2.08;;;;;;;18.98;70.31;98162.00;4482479;32;33986;-86
2023/07/26 08:12:28;;;;;;;5.35;2.05;;;;;;;19.05;70.99;98154.75;4481177;32;33076;-86
2023/07/26 08:14:56;;;;;;;3.85;2.05;;;;;;;19.18;71.13;98156.84;4482373;32;34635;-87
2023/07/26 08:17:23;;;;;;;4.07;2.20;;;;;;;18.91;71.28;98160.53;4482403;32;34553;-88
2023/07/26 08:19:51;;;;;;;5.30;2.60;;;;;;;18.67;72.55;98159.59;4467858;32;32691;-89
2023/07/26 08:22:19;;;;;;;4.87;2.65;;;;;;;18.72;72.64;98162.97;4481426;32;32822;-89
2023/07/26 08:24:51;;;;;;;6.37;2.60;;;;;;;18.63;72.68;98158.00;4481243;32;33818;-85
2023/07/26 08:27:19;;;;;;;6.00;2.47;;;;;;;18.52;73.22;98161.00;4482317;32;33646;-90
2023/07/26 08:29:46;;;;;;;4.10;2.20;;;;;;;18.57;73.55;98163.50;4482242;32;34890;-89
2023/07/26 08:32:14;;;;;;;5.00;2.30;;;;;;;18.88;71.70;98173.75;4480732;32;33941;-88
2023/07/26 08:34:42;;;;;;;5.50;2.72;;;;;;;18.84;72.20;98178.28;4482027;32;33487;-90
2023/07/26 08:37:09;;;;;;;4.78;2.28;;;;;;;19.04;70.77;98181.94;4481990;32;35065;-88
2023/07/26 08:39:37;;;;;;;5.43;2.47;;;;;;;18.56;73.20;98178.38;4482259;32;33392;-86
2023/07/26 08:42:05;;;;;;;5.30;2.40;;;;;;;18.86;70.64;98192.19;4483876;32;34276;-91
2023/07/26 08:44:33;;;;;;;3.97;2.20;;;;;;;18.55;71.62;98186.28;4482538;32;33184;-90
2023/07/26 08:47:03;;;;;;;5.20;2.25;;;;;;;18.54;72.15;98185.44;4483090;32;33893;-89
2023/07/26 08:49:32;;;;;;;4.85;2.53;;;;;;;18.50;73.68;98198.72;4482558;32;34082;-87
2023/07/26 08:52:02;;;;;;;4.28;2.28;;;;;;;18.64;71.50;98201.75;4482718;32;33490;-88
2023/07/26 08:54:29;;;;;;;4.00;2.10;;;;;;;18.58;70.58;98210.66;4482575;32;34051;-90
2023/07/26 08:56:57;;;;;;;5.12;2.20;;;;;;;18.69;70.20;98212.94;4469902;32;34968;-90
2023/07/26 08:59:25;;;;;;;4.53;2.08;;;;;;;18.86;70.31;98220.22;4484092;32;34670;-90
2023/07/26 09:01:54;;;;;;;4.40;2.05;;;;;;;19.37;66.88;98217.47;4483943;32;33081;-89
2023/07/26 09:04:32;;;;;;;4.93;1.80;;;;;;;19.05;68.39;98223.91;4482965;32;34318;-90
2023/07/26 09:07:03;;;;;;;4.30;2.15;;;;;;;18.85;68.56;98231.66;4482577;32;34901;-89
2023/07/26 09:09:35;;;;;;;3.33;1.80;;;;;;;18.52;70.26;98228.38;4469723;32;33584;-89
2023/07/26 09:12:04;;;;;;;4.28;1.98;;;;;;;18.89;68.10;98233.25;4482559;32;33327;-88
2023/07/26 09:14:33;;;;;;;6.62;2.22;;;;;;;18.82;68.72;98237.00;4483920;32;33579;-91
2023/07/26 09:17:02;;;;;;;4.47;1.90;;;;;;;18.99;68.88;98234.66;4482500;32;33904;-90
2023/07/26 09:19:38;;;;;;;3.53;1.90;;;;;;;19.10;69.01;98243.00;4482290;32;33826;-89
2023/07/26 09:22:08;;;;;;;4.78;2.00;;;;;;;19.26;69.09;98235.41;4482518;32;33329;-91
2023/07/26 09:24:39;;;;;;;4.22;1.95;;;;;;;19.10;69.81;98223.75;4483736;32;33649;-90
2023/07/26 09:27:09;;;;;;;7.10;2.10;;;;;;;19.33;67.24;98222.91;4483566;32;33801;-91
2023/07/26 09:29:39;;;;;;;3.53;2.00;;;;;;;19.34;68.05;98214.94;4482392;32;34509;-90
2023/07/26 09:32:07;;;;;;;5.97;2.50;;;;;;;19.53;67.24;98219.50;4483530;32;33411;-92
2023/07/26 09:34:35;;;;;;;6.35;2.40;;;;;;;19.80;66.43;98207.91;4469379;32;32966;-90
2023/07/26 09:37:03;;;;;;;4.85;2.08;;;;;;;19.88;67.57;98215.50;4482352;32;34541;-92
2023/07/26 09:39:32;;;;;;;4.45;2.20;;;;;;;19.77;67.96;98218.56;4482746;32;34055;-90
2023/07/26 09:42:06;;;;;;;4.70;2.05;;;;;;;20.23;67.02;98208.81;4482538;32;33625;-91
2023/07/26 09:44:34;;;;;;;3.92;1.90;;;;;;;20.17;65.75;98209.91;4482564;32;33891;-92
2023/07/26 09:47:02;;;;;;;3.03;1.70;;;;;;;20.42;64.01;98201.87;4482118;32;35103;-91
2023/07/26 09:49:30;;;;;;;5.00;2.37;;;;;;;20.25;65.19;98208.75;4483960;32;33527;-89
2023/07/26 09:52:00;;;;;;;3.17;1.70;;;;;;;20.09;66.17;98205.91;4483340;31;33784;-94
2023/07/26 09:54:33;;;;;;;5.20;1.98;;;;;;;20.46;64.28;98201.75;4482210;32;33735;-87
2023/07/26 09:57:05;;;;;;;4.25;1.77;;;;;;;20.62;62.83;98219.47;4483733;32;35016;-93
2023/07/26 09:59:37;;;;;;;5.82;1.90;;;;;;;20.21;64.93;98230.84;4483781;32;33796;-92
2023/07/26 10:02:09;;;;;;;3.62;1.90;;;;;;;20.24;64.60;98228.09;4482253;32;33503;-92
2023/07/26 10:04:48;;;;;;;4.45;2.00;;;;;;;20.35;63.76;98223.25;4482280;32;33193;-90
2023/07/26 10:07:16;;;;;;;5.18;2.20;;;;;;;20.58;64.34;98217.03;4482645;31;33420;-87
2023/07/26 10:09:45;;;;;;;3.80;1.90;;;;;;;20.49;64.02;98217.37;4484094;32;34913;-90
2023/07/26 10:12:14;;;;;;;3.72;1.80;;;;;;;20.82;62.81;98229.12;4469236;32;32522;-88
2023/07/26 10:14:42;;;;;;;4.80;2.10;;;;;;;20.33;63.63;98223.28;4482267;32;33850;-93
2023/07/26 10:17:15;;;;;;;4.95;2.03;;;;;;;20.26;64.18;98227.09;4483162;32;33425;-92
2023/07/26 10:19:46;;;;;;;4.28;1.90;;;;;;;20.18;64.32;98240.56;4481877;32;33969;-87
2023/07/26 10:22:14;;;;;;;4.95;2.70;;;;;;;20.32;63.62;98232.13;4483779;32;33053;-89
2023/07/26 10:24:42;;;;;;;4.82;2.42;;;;;;;20.47;63.33;98229.78;4481975;32;32441;-92
2023/07/26 10:27:11;;;;;;;5.65;2.30;;;;;;;20.03;63.87;98232.44;4482053;32;33633;-93
2023/07/26 10:29:39;;;;;;;3.62;2.15;;;;;;;19.96;64.03;98228.34;4482173;32;33791;-94
2023/07/26 10:32:07;;;;;;;4.78;1.80;;;;;;;20.07;64.76;98236.66;4483232;32;33178;-91
2023/07/26 10:34:35;;;;;;;3.78;1.90;;;;;;;20.30;64.42;98235.72;4483605;32;33519;-95
2023/07/26 10:37:14;;;;;;;3.83;1.95;;;;;;;19.99;64.42;98228.22;4469382;32;34115;-93
2023/07/26 10:39:41;;;;;;;5.55;2.05;;;;;;;20.39;61.93;98228.31;4483224;32;33889;-94
2023/07/26 10:42:28;;;;;;;4.32;2.08;;;;;;;19.91;63.64;98236.44;4483753;32;33742;-91
2023/07/26 10:45:03;;;;;;;3.53;1.90;;;;;;;19.90;63.92;98237.34;4481237;32;32575;-91
2023/07/26 10:47:31;;;;;;;4.78;1.87;;;;;;;20.21;62.57;98236.97;4469539;32;34235;-85
2023/07/26 10:50:05;;;;;;;3.72;1.90;;;;;;;20.08;63.49;98234.00;4482045;32;34118;-90
2023/07/26 10:52:37;;;;;;;5.05;2.20;;;;;;;20.14;62.65;98241.63;4483111;32;33345;-93
2023/07/26 10:55:31;;;;;;;3.58;1.90;;;;;;;20.28;62.05;98241.06;4469283;32;33417;-92
2023/07/26 10:58:12;;;;;;;4.03;1.70;;;;;;;19.83;62.13;98241.16;4480156;32;33258;-92
2023/07/26 11:00:39;;;;;;;3.45;1.83;;;;;;;19.89;62.16;98248.81;4481554;32;34535;-90
2023/07/26 11:03:08;;;;;;;4.50;2.00;;;;;;;19.98;62.53;98247.56;4483157;32;33264;-91
2023/07/26 11:05:38;;;;;;;4.35;1.90;;;;;;;20.38;61.58;98252.06;4482038;32;34057;-92
2023/07/26 11:08:07;;;;;;;3.87;2.08;;;;;;;20.33;59.60;98246.13;4468527;32;33726;-91
2023/07/26 11:10:48;;;;;;;4.25;1.90;;;;;;;19.98;60.97;98243.16;4481826;32;33841;-91
2023/07/26 11:13:27;;;;;;;3.83;2.00;;;;;;;20.43;59.87;98239.56;4468937;32;34089;-92
2023/07/26 11:15:54;;;;;;;4.05;1.50;;;;;;;20.75;61.19;98248.75;4481820;32;33958;-91
2023/07/26 11:18:42;;;;;;;3.40;1.80;;;;;;;20.86;59.87;98254.41;4482889;32;33812;-89
2023/07/26 11:21:14;;;;;;;5.30;1.87;;;;;;;20.57;58.92;98244.28;4468865;32;33853;-91
2023/07/26 11:23:42;;;;;;;3.30;1.65;;;;;;;20.52;59.35;98243.62;4481823;32;33956;-90
2023/07/26 11:26:10;;;;;;;4.28;1.87;;;;;;;20.70;59.69;98252.53;4481800;32;34461;-92
2023/07/26 11:28:38;;;;;;;4.90;1.90;;;;;;;20.64;60.24;98243.09;4468566;32;34608;-91
2023/07/26 11:31:06;;;;;;;2.90;1.80;;;;;;;20.62;59.60;98243.16;4482935;32;33649;-90
2023/07/26 11:33:36;;;;;;;2.58;1.50;;;;;;;20.67;58.73;98237.69;4468686;32;33323;-87
2023/07/26 11:36:10;;;;;;;3.08;1.73;;;;;;;20.28;59.50;98237.59;4483069;32;33945;-92
2023/07/26 11:38:43;;;;;;;2.70;1.60;;;;;;;20.68;59.75;98235.91;4481393;32;33959;-91
2023/07/26 11:41:20;;;;;;;4.03;1.73;;;;;;;20.72;58.28;98248.91;4481498;32;34023;-93